createdAt,value
2018-09-04T00:00:45.715Z,41.10
2018-09-04T00:01:45.764Z,42.80
2018-09-04T00:02:45.718Z,43.20
2018-09-04T00:03:45.683Z,40.80
2018-09-04T00:04:45.688Z,38.40
2018-09-04T00:05:45.667Z,43.10
2018-09-04T00:06:45.654Z,40.20
2018-09-04T00:07:45.660Z,43.00
2018-09-04T00:08:45.658Z,44.00
2018-09-04T00:09:45.621Z,43.20
2018-09-04T00:10:45.606Z,37.80
2018-09-04T00:11:45.630Z,41.00
2018-09-04T00:12:45.582Z,39.50
2018-09-04T00:13:45.574Z,39.80
2018-09-04T00:14:45.577Z,42.00
2018-09-04T00:15:45.546Z,41.10
2018-09-04T00:16:45.532Z,39.80
2018-09-04T00:17:45.540Z,41.60
2018-09-04T00:18:45.528Z,41.10
2018-09-04T00:19:45.502Z,46.10
2018-09-04T00:20:45.489Z,41.90
2018-09-04T00:21:45.484Z,46.60
2018-09-04T00:22:45.467Z,43.90
2018-09-04T00:23:45.490Z,43.70
2018-09-04T00:24:45.456Z,39.70
2018-09-04T00:25:45.436Z,36.10
2018-09-04T00:26:45.422Z,41.00
2018-09-04T00:27:45.420Z,41.10
2018-09-04T00:28:45.425Z,40.80
2018-09-04T00:29:45.403Z,44.00
2018-09-04T00:30:45.381Z,51.50
2018-09-04T00:31:45.374Z,52.50
2018-09-04T00:32:45.375Z,52.90
2018-09-04T00:33:45.347Z,51.80
2018-09-04T00:34:45.375Z,51.80
2018-09-04T00:35:45.327Z,53.40
2018-09-04T00:36:45.329Z,54.90
2018-09-04T00:37:45.302Z,51.10
2018-09-04T00:38:45.290Z,54.40
2018-09-04T00:39:45.277Z,52.50
2018-09-04T00:40:45.287Z,50.10
2018-09-04T00:41:45.256Z,55.80
2018-09-04T00:42:45.265Z,55.40
2018-09-04T00:43:45.239Z,56.20
2018-09-04T00:44:45.225Z,56.00
2018-09-04T00:45:45.233Z,55.50
2018-09-04T00:46:45.216Z,59.10
2018-09-04T00:47:45.187Z,57.80
2018-09-04T00:48:45.211Z,59.80
2018-09-04T00:49:45.163Z,56.90
2018-09-04T00:50:45.177Z,61.30
2018-09-04T00:51:45.150Z,64.70
2018-09-04T00:52:45.136Z,63.40
2018-09-04T00:53:45.125Z,59.60
2018-09-04T00:54:45.144Z,60.10
2018-09-04T00:55:45.117Z,57.90
2018-09-04T00:56:45.090Z,57.70
2018-09-04T00:57:45.085Z,55.40
2018-09-04T00:58:45.064Z,58.10
2018-09-04T00:59:45.066Z,60.20
2018-09-04T01:00:45.054Z,59.70
2018-09-04T01:01:45.054Z,59.80
2018-09-04T01:02:45.020Z,55.30
2018-09-04T01:03:45.013Z,55.10
2018-09-04T01:04:45.016Z,56.60
2018-09-04T01:05:44.985Z,56.90
2018-09-04T01:06:45.012Z,60.70
2018-09-04T01:07:44.962Z,57.10
2018-09-04T01:08:44.974Z,58.10
2018-09-04T01:09:44.942Z,52.00
2018-09-04T01:10:44.937Z,54.50
2018-09-04T01:11:44.922Z,54.90
2018-09-04T01:12:44.917Z,47.50
2018-09-04T01:13:44.940Z,52.40
2018-09-04T01:14:44.895Z,52.30
2018-09-04T01:15:44.879Z,52.70
2018-09-04T01:16:44.893Z,53.10
2018-09-04T01:17:44.868Z,52.80
2018-09-04T01:18:44.858Z,54.40
2018-09-04T01:19:44.858Z,58.70
2018-09-04T01:20:44.822Z,59.10
2018-09-04T01:21:44.814Z,55.50
2018-09-04T01:22:44.798Z,53.10
2018-09-04T01:23:44.791Z,49.70
2018-09-04T01:24:44.795Z,51.60
2018-09-04T01:25:44.790Z,51.10
2018-09-04T01:26:44.759Z,52.50
2018-09-04T01:27:44.763Z,55.90
2018-09-04T01:28:44.737Z,50.80
2018-09-04T01:29:44.726Z,57.50
2018-09-04T01:30:44.709Z,58.00
2018-09-04T01:31:44.729Z,54.40
2018-09-04T01:32:44.687Z,55.00
2018-09-04T01:33:44.695Z,53.90
2018-09-04T01:34:44.705Z,55.50
2018-09-04T01:35:44.694Z,57.60
2018-09-04T01:36:44.646Z,57.20
2018-09-04T01:37:44.638Z,61.10
2018-09-04T01:38:44.623Z,55.40
2018-09-04T01:39:44.616Z,52.90
2018-09-04T01:40:44.623Z,55.30
2018-09-04T01:41:44.590Z,57.60
2018-09-04T01:42:44.582Z,58.00
2018-09-04T01:43:44.569Z,58.10
2018-09-04T01:44:44.559Z,56.90
2018-09-04T01:45:44.547Z,58.00
2018-09-04T01:46:44.572Z,54.90
2018-09-04T01:47:44.520Z,54.40
2018-09-04T01:48:44.512Z,54.20
2018-09-04T01:49:44.514Z,50.10
2018-09-04T01:50:44.494Z,50.60
2018-09-04T01:51:44.475Z,53.90
2018-09-04T01:52:44.480Z,53.40
2018-09-04T01:53:44.458Z,54.80
2018-09-04T01:54:44.448Z,58.20
2018-09-04T01:55:44.449Z,56.30
2018-09-04T01:56:44.423Z,53.90
2018-09-04T01:57:44.437Z,56.20
2018-09-04T01:58:44.402Z,55.20
2018-09-04T01:59:44.393Z,54.80
2018-09-04T02:01:57.569Z,53.60
2018-09-04T02:02:57.161Z,59.20
2018-09-04T02:03:57.063Z,56.60
2018-09-04T02:04:57.101Z,59.50
2018-09-04T02:05:57.026Z,57.50
2018-09-04T02:06:57.045Z,56.30
2018-09-04T02:07:57.001Z,61.00
2018-09-04T02:08:57.006Z,65.90
2018-09-04T02:09:56.996Z,63.90
2018-09-04T02:10:56.969Z,60.80
2018-09-04T02:11:56.973Z,63.80
2018-09-04T02:12:56.950Z,63.80
2018-09-04T02:13:56.973Z,62.60
2018-09-04T02:14:56.921Z,62.50
2018-09-04T02:15:56.913Z,68.60
2018-09-04T02:16:56.922Z,66.80
2018-09-04T02:17:56.991Z,62.40
2018-09-04T02:18:56.884Z,57.30
2018-09-04T02:19:56.883Z,57.30
2018-09-04T02:20:56.859Z,58.60
2018-09-04T02:21:56.844Z,62.20
2018-09-04T02:22:56.839Z,60.40
2018-09-04T02:23:56.818Z,59.70
2018-09-04T02:24:56.841Z,57.90
2018-09-04T02:25:56.798Z,58.80
2018-09-04T02:26:56.785Z,57.50
2018-09-04T02:27:56.772Z,57.00
2018-09-04T02:28:56.784Z,59.00
2018-09-04T02:29:56.749Z,56.40
2018-09-04T02:30:56.760Z,53.70
2018-09-04T02:31:56.726Z,54.30
2018-09-04T02:32:56.744Z,54.10
2018-09-04T02:33:56.745Z,61.60
2018-09-04T02:34:56.722Z,59.00
2018-09-04T02:35:56.687Z,56.10
2018-09-04T02:36:56.668Z,60.40
2018-09-04T02:37:56.658Z,60.40
2018-09-04T02:38:56.649Z,58.30
2018-09-04T02:39:56.650Z,60.40
2018-09-04T02:40:56.644Z,55.20
2018-09-04T02:41:56.611Z,62.20
2018-09-04T02:42:56.605Z,60.90
2018-09-04T02:43:56.619Z,65.20
2018-09-04T02:44:56.601Z,63.50
2018-09-04T02:45:56.572Z,64.60
2018-09-04T02:46:56.572Z,62.50
2018-09-04T02:47:56.547Z,62.90
2018-09-04T02:48:56.558Z,57.80
2018-09-04T02:49:56.523Z,61.50
2018-09-04T02:50:56.524Z,59.80
2018-09-04T02:51:56.518Z,58.90
2018-09-04T02:52:56.510Z,60.80
2018-09-04T02:53:56.508Z,61.30
2018-09-04T02:54:56.471Z,56.80
2018-09-04T02:55:56.461Z,54.50
2018-09-04T02:56:56.448Z,56.90
2018-09-04T02:57:56.435Z,52.20
2018-09-04T02:58:56.433Z,53.70
2018-09-04T02:59:56.440Z,55.20
2018-09-04T03:00:56.404Z,57.40
2018-09-04T03:01:56.392Z,53.30
2018-09-04T03:02:56.380Z,52.80
2018-09-04T03:03:56.380Z,53.40
2018-09-04T03:04:56.363Z,56.30
2018-09-04T03:05:56.363Z,54.00
2018-09-04T03:06:56.333Z,56.70
2018-09-04T03:07:56.323Z,55.40
2018-09-04T03:08:56.312Z,52.30
2018-09-04T03:09:56.300Z,47.20
2018-09-04T03:10:56.314Z,48.10
2018-09-04T03:11:56.281Z,53.60
2018-09-04T03:12:56.266Z,56.10
2018-09-04T03:13:56.319Z,55.90
2018-09-04T03:14:56.250Z,52.50
2018-09-04T03:15:56.279Z,49.30
2018-09-04T03:16:56.240Z,51.00
2018-09-04T03:17:56.209Z,51.90
2018-09-04T03:18:56.198Z,48.60
2018-09-04T03:19:56.187Z,53.90
2018-09-04T03:20:56.179Z,50.60
2018-09-04T03:21:56.192Z,59.10
2018-09-04T03:22:56.186Z,47.70
2018-09-04T03:23:56.146Z,54.30
2018-09-04T03:24:56.130Z,48.30
2018-09-04T03:25:56.123Z,52.10
2018-09-04T03:26:56.122Z,49.70
2018-09-04T03:27:56.119Z,46.10
2018-09-04T03:28:56.100Z,52.10
2018-09-04T03:29:56.100Z,56.80
2018-09-04T03:30:56.083Z,53.60
2018-09-04T03:31:56.057Z,48.80
2018-09-04T03:32:56.041Z,51.80
2018-09-04T03:33:56.026Z,51.00
2018-09-04T03:34:56.038Z,52.00
2018-09-04T03:35:56.065Z,57.00
2018-09-04T03:36:56.000Z,55.40
2018-09-04T03:37:56.007Z,50.50
2018-09-04T03:38:55.975Z,57.00
2018-09-04T03:39:55.983Z,53.80
2018-09-04T03:40:55.991Z,55.40
2018-09-04T03:41:55.943Z,50.90
2018-09-04T03:42:55.925Z,48.70
2018-09-04T03:43:55.928Z,58.50
2018-09-04T03:44:55.928Z,60.20
2018-09-04T03:45:55.888Z,64.20
2018-09-04T03:46:55.887Z,63.30
2018-09-04T03:47:55.880Z,55.00
2018-09-04T03:48:55.858Z,50.90
2018-09-04T03:49:55.842Z,53.90
2018-09-04T03:50:55.851Z,61.80
2018-09-04T03:51:55.831Z,52.80
2018-09-04T03:52:55.809Z,50.90
2018-09-04T03:53:55.829Z,53.20
2018-09-04T03:54:55.805Z,60.60
2018-09-04T03:55:55.776Z,61.20
2018-09-04T03:56:55.765Z,64.60
2018-09-04T03:57:55.754Z,60.70
2018-09-04T03:58:55.741Z,55.80
2018-09-04T03:59:55.790Z,56.00
2018-09-04T04:00:55.722Z,58.60
2018-09-04T04:01:55.712Z,62.90
2018-09-04T04:02:55.692Z,57.70
2018-09-04T04:03:55.696Z,54.60
2018-09-04T04:04:55.673Z,60.20
2018-09-04T04:05:55.710Z,71.30
2018-09-04T04:06:55.647Z,58.70
2018-09-04T04:07:55.639Z,55.60
2018-09-04T04:08:55.635Z,61.20
2018-09-04T04:09:55.611Z,65.90
2018-09-04T04:10:55.608Z,62.70
2018-09-04T04:11:55.682Z,63.50
2018-09-04T04:12:55.783Z,58.10
2018-09-04T04:15:07.784Z,53.80
2018-09-04T04:16:07.402Z,59.50
2018-09-04T04:17:07.285Z,59.30
2018-09-04T04:18:07.322Z,61.30
2018-09-04T04:19:07.347Z,62.60
2018-09-04T04:20:07.247Z,59.80
2018-09-04T04:21:07.291Z,62.00
2018-09-04T04:22:07.258Z,55.30
2018-09-04T04:23:07.213Z,57.10
2018-09-04T04:24:07.194Z,59.10
2018-09-04T04:25:07.256Z,58.40
2018-09-04T04:26:07.192Z,57.00
2018-09-04T04:27:07.172Z,59.10
2018-09-04T04:28:07.186Z,66.30
2018-09-04T04:29:07.182Z,65.80
2018-09-04T04:30:07.129Z,62.00
2018-09-04T04:31:07.123Z,62.10
2018-09-04T04:32:07.169Z,57.10
2018-09-04T04:33:07.227Z,58.40
2018-09-04T04:34:07.144Z,62.10
2018-09-04T04:35:07.080Z,53.40
2018-09-04T04:36:07.060Z,56.50
2018-09-04T04:37:07.067Z,58.20
2018-09-04T04:38:07.039Z,56.90
2018-09-04T04:39:07.034Z,56.90
2018-09-04T04:40:07.166Z,56.10
2018-09-04T04:41:07.998Z,52.40
2018-09-04T04:42:07.089Z,57.10
2018-09-04T04:43:06.994Z,58.10
2018-09-04T04:44:07.056Z,58.50
2018-09-04T04:45:07.103Z,60.50
2018-09-04T04:46:06.969Z,58.70
2018-09-04T04:47:06.941Z,60.10
2018-09-04T04:48:06.952Z,50.60
2018-09-04T04:49:06.938Z,58.50
2018-09-04T04:50:06.915Z,63.30
2018-09-04T04:51:07.055Z,60.40
2018-09-04T04:52:07.758Z,62.70
2018-09-04T04:53:07.045Z,56.90
2018-09-04T04:54:07.738Z,66.50
2018-09-04T04:55:07.588Z,68.30
2018-09-04T04:56:06.962Z,61.00
2018-09-04T04:58:18.916Z,56.00
2018-09-04T04:59:18.070Z,59.30
2018-09-04T05:00:18.059Z,61.40
2018-09-04T05:01:18.126Z,65.20
2018-09-04T05:02:18.023Z,62.30
2018-09-04T05:03:18.098Z,65.20
2018-09-04T05:04:20.004Z,72.20
2018-09-04T05:05:17.968Z,69.70
2018-09-04T05:06:18.096Z,68.00
2018-09-04T05:07:18.877Z,73.00
2018-09-04T05:08:18.890Z,71.70
2018-09-04T05:11:49.130Z,54.50
2018-09-04T05:12:48.547Z,65.70
2018-09-04T05:13:48.225Z,62.30
2018-09-04T05:14:48.117Z,62.10
2018-09-04T05:15:48.199Z,66.30
2018-09-04T05:16:48.077Z,78.90
2018-09-04T05:17:48.171Z,74.60
2018-09-04T05:18:48.065Z,73.60
2018-09-04T05:19:48.981Z,70.50
2018-09-04T05:23:29.368Z,75.50
2018-09-04T05:24:29.355Z,73.20
2018-09-04T05:25:29.296Z,65.30
2018-09-04T05:26:29.286Z,70.60
2018-09-04T05:27:29.363Z,75.30
2018-09-04T05:28:29.040Z,70.50
2018-09-04T05:29:29.086Z,75.50
2018-09-04T05:30:29.134Z,56.60
2018-09-04T05:31:29.090Z,68.60
2018-09-04T05:32:29.037Z,70.90
2018-09-04T05:33:29.043Z,50.60
2018-09-04T05:34:29.034Z,54.20
2018-09-04T05:35:28.986Z,67.00
2018-09-04T05:36:28.959Z,57.70
2018-09-04T05:37:28.948Z,68.70
2018-09-04T05:38:29.022Z,64.90
2018-09-04T05:39:28.925Z,72.10
2018-09-04T05:40:28.914Z,71.30
2018-09-04T05:41:28.906Z,73.90
2018-09-04T05:42:28.893Z,73.10
2018-09-04T05:43:28.896Z,82.20
2018-09-04T05:44:28.875Z,82.40
2018-09-04T05:45:28.859Z,74.90
2018-09-04T05:46:28.895Z,78.00
2018-09-04T05:47:28.831Z,75.70
2018-09-04T05:48:28.922Z,78.10
2018-09-04T05:49:28.839Z,77.80
2018-09-04T05:50:28.839Z,85.80
2018-09-04T05:51:28.796Z,77.80
2018-09-04T05:52:28.788Z,83.30
2018-09-04T05:53:28.773Z,76.90
2018-09-04T05:54:28.777Z,79.10
2018-09-04T05:55:28.765Z,76.60
2018-09-04T05:56:28.741Z,72.40
2018-09-04T05:57:28.742Z,79.80
2018-09-04T05:58:28.773Z,76.40
2018-09-04T05:59:28.697Z,81.80
2018-09-04T06:00:28.691Z,78.60
2018-09-04T06:01:28.710Z,84.20
2018-09-04T06:02:28.666Z,76.10
2018-09-04T06:03:28.716Z,76.20
2018-09-04T06:04:28.648Z,84.40
2018-09-04T06:05:28.639Z,78.40
2018-09-04T06:06:28.639Z,84.00
2018-09-04T06:07:28.632Z,78.10
2018-09-04T06:08:28.605Z,80.30
2018-09-04T06:09:28.612Z,77.70
2018-09-04T06:10:28.587Z,79.90
2018-09-04T06:11:28.620Z,85.60
2018-09-04T06:12:28.592Z,83.60
2018-09-04T06:13:28.551Z,80.80
2018-09-04T06:14:28.598Z,88.30
2018-09-04T06:15:28.552Z,91.40
2018-09-04T06:16:28.514Z,85.10
2018-09-04T06:17:28.513Z,89.80
2018-09-04T06:18:28.488Z,82.20
2018-09-04T06:19:28.483Z,81.70
2018-09-04T06:20:28.486Z,83.20
2018-09-04T06:21:28.480Z,84.60
2018-09-04T06:22:28.439Z,83.80
2018-09-04T06:23:28.444Z,80.20
2018-09-04T06:24:28.426Z,83.20
2018-09-04T06:25:28.451Z,87.70
2018-09-04T06:26:28.439Z,89.10
2018-09-04T06:27:28.388Z,83.20
2018-09-04T06:28:28.387Z,86.50
2018-09-04T06:29:28.471Z,86.40
2018-09-04T06:30:28.410Z,81.20
2018-09-04T06:31:28.373Z,78.70
2018-09-04T06:32:28.355Z,85.80
2018-09-04T06:33:28.380Z,80.30
2018-09-04T06:34:28.315Z,78.10
2018-09-04T06:35:28.329Z,73.50
2018-09-04T06:36:28.350Z,77.60
2018-09-04T06:37:28.317Z,78.70
2018-09-04T06:38:28.271Z,80.30
2018-09-04T06:39:28.259Z,75.40
2018-09-04T06:40:28.246Z,75.70
2018-09-04T06:41:28.323Z,77.40
2018-09-04T06:42:28.215Z,81.50
2018-09-04T06:43:28.208Z,77.60
2018-09-04T06:44:28.312Z,81.40
2018-09-04T06:45:28.210Z,77.80
2018-09-04T06:46:28.235Z,82.70
2018-09-04T06:47:28.226Z,76.80
2018-09-04T06:48:28.181Z,81.10
2018-09-04T06:49:28.196Z,81.80
2018-09-04T06:50:28.128Z,83.10
2018-09-04T06:51:28.130Z,80.50
2018-09-04T06:52:28.123Z,76.80
2018-09-04T06:53:28.113Z,80.00
2018-09-04T06:54:28.220Z,79.50
2018-09-04T06:55:28.080Z,83.90
2018-09-04T06:56:28.070Z,86.40
2018-09-04T06:57:28.078Z,83.30
2018-09-04T06:58:28.044Z,85.80
2018-09-04T06:59:28.117Z,82.60
2018-09-04T07:00:28.101Z,80.00
2018-09-04T07:01:28.053Z,79.40
2018-09-04T07:02:28.068Z,77.10
2018-09-04T07:03:28.007Z,80.10
2018-09-04T07:04:27.988Z,79.30
2018-09-04T07:05:27.980Z,85.90
2018-09-04T07:06:28.010Z,84.10
2018-09-04T07:07:27.949Z,82.10
2018-09-04T07:08:27.970Z,81.70
2018-09-04T07:09:27.927Z,84.30
2018-09-04T07:10:27.915Z,82.80
2018-09-04T07:11:27.923Z,80.60
2018-09-04T07:12:27.886Z,80.60
2018-09-04T07:13:27.898Z,85.10
2018-09-04T07:14:27.914Z,87.80
2018-09-04T07:15:27.858Z,87.40
2018-09-04T07:16:27.871Z,86.50
2018-09-04T07:17:27.822Z,82.60
2018-09-04T07:18:27.879Z,82.70
2018-09-04T07:19:27.855Z,80.30
2018-09-04T07:20:27.802Z,84.20
2018-09-04T07:21:27.791Z,84.10
2018-09-04T07:22:27.831Z,83.60
2018-09-04T07:23:27.838Z,81.40
2018-09-04T07:24:27.752Z,85.70
2018-09-04T07:25:27.762Z,84.10
2018-09-04T07:26:27.783Z,85.90
2018-09-04T07:27:27.776Z,86.70
2018-09-04T07:28:27.713Z,87.00
2018-09-04T07:29:27.709Z,89.00
2018-09-04T07:30:27.689Z,88.80
2018-09-04T07:31:27.700Z,86.80
2018-09-04T07:32:27.702Z,91.40
2018-09-04T07:33:27.723Z,88.00
2018-09-04T07:34:27.641Z,90.80
2018-09-04T07:35:27.638Z,91.00
2018-09-04T07:36:27.840Z,89.60
2018-09-04T07:37:27.703Z,93.30
2018-09-04T07:38:27.670Z,93.40
2018-09-04T07:39:27.589Z,91.20
2018-09-04T07:40:27.587Z,87.20
2018-09-04T07:41:27.579Z,87.40
2018-09-04T07:42:27.561Z,88.20
2018-09-04T07:43:27.697Z,84.40
2018-09-04T07:44:27.535Z,82.20
2018-09-04T07:45:27.684Z,89.10
2018-09-04T07:46:27.509Z,85.40
2018-09-04T07:47:27.501Z,82.40
2018-09-04T07:48:27.548Z,88.50
2018-09-04T07:49:27.534Z,80.20
2018-09-04T07:50:27.464Z,84.60
2018-09-04T07:51:27.453Z,86.20
2018-09-04T07:52:27.449Z,82.30
2018-09-04T07:53:27.626Z,86.10
2018-09-04T07:54:27.443Z,84.70
2018-09-04T07:55:27.413Z,81.00
2018-09-04T07:56:27.401Z,79.90
2018-09-04T07:57:27.389Z,80.80
2018-09-04T07:58:27.452Z,80.20
2018-09-04T07:59:27.376Z,85.60
2018-09-04T08:00:27.405Z,85.00
2018-09-04T08:01:27.433Z,82.80
2018-09-04T08:02:27.345Z,80.80
2018-09-04T08:03:27.320Z,83.70
2018-09-04T08:04:27.359Z,83.60
2018-09-04T08:05:27.296Z,86.50
2018-09-04T08:06:27.296Z,87.10
2018-09-04T08:07:27.352Z,80.00
2018-09-04T08:08:27.354Z,80.30
2018-09-04T08:09:27.275Z,81.70
2018-09-04T08:10:27.472Z,77.70
2018-09-04T08:11:27.299Z,78.60
2018-09-04T08:12:27.248Z,76.20
2018-09-04T08:13:27.389Z,74.70
2018-09-04T08:14:27.354Z,81.90
2018-09-04T08:15:27.321Z,76.80
2018-09-04T08:16:27.452Z,80.80
2018-09-04T08:17:27.297Z,76.80
2018-09-04T08:18:28.182Z,77.80
2018-09-04T08:19:27.328Z,77.10
2018-09-04T08:20:27.321Z,76.00
2018-09-04T08:21:27.245Z,76.80
2018-09-04T08:22:27.148Z,80.60
2018-09-04T08:23:27.103Z,82.30
2018-09-04T08:24:27.097Z,76.40
2018-09-04T08:25:27.115Z,78.80
2018-09-04T08:26:27.065Z,80.80
2018-09-04T08:27:27.054Z,76.30
2018-09-04T08:28:27.052Z,79.40
2018-09-04T08:29:27.109Z,77.40
2018-09-04T08:30:28.196Z,74.90
2018-09-04T08:31:27.094Z,80.10
2018-09-04T08:32:27.066Z,75.70
2018-09-04T08:33:27.019Z,77.40
2018-09-04T08:34:27.028Z,78.30
2018-09-04T08:35:27.052Z,75.60
2018-09-04T08:36:26.979Z,74.30
2018-09-04T08:37:27.074Z,78.70
2018-09-04T08:38:27.036Z,80.60
2018-09-04T08:39:27.043Z,76.00
2018-09-04T08:40:27.051Z,72.20
2018-09-04T08:41:27.085Z,73.60
2018-09-04T08:42:26.894Z,73.70
2018-09-04T08:43:26.879Z,74.70
2018-09-04T08:44:26.897Z,74.10
2018-09-04T08:45:26.852Z,77.20
2018-09-04T08:46:27.006Z,76.70
2018-09-04T08:47:26.893Z,80.50
2018-09-04T08:48:26.820Z,75.60
2018-09-04T08:49:26.848Z,78.00
2018-09-04T08:50:26.871Z,78.70
2018-09-04T08:51:26.782Z,73.30
2018-09-04T08:52:26.808Z,78.50
2018-09-04T08:53:26.811Z,76.90
2018-09-04T08:54:26.786Z,75.70
2018-09-04T08:55:26.787Z,74.40
2018-09-04T08:56:26.731Z,80.10
2018-09-04T08:57:26.721Z,75.60
2018-09-04T08:58:26.785Z,76.80
2018-09-04T08:59:26.700Z,75.70
2018-09-04T09:00:26.696Z,78.50
2018-09-04T09:01:26.676Z,76.40
2018-09-04T09:02:26.669Z,73.90
2018-09-04T09:03:26.678Z,79.50
2018-09-04T09:04:26.647Z,76.40
2018-09-04T09:05:26.679Z,79.00
2018-09-04T09:06:26.651Z,75.70
2018-09-04T09:07:26.632Z,71.20
2018-09-04T09:08:26.621Z,75.50
2018-09-04T09:09:26.596Z,76.80
2018-09-04T09:10:26.585Z,78.10
2018-09-04T09:11:26.573Z,78.80
2018-09-04T09:12:26.575Z,77.60
2018-09-04T09:13:26.564Z,76.80
2018-09-04T09:14:26.537Z,78.20
2018-09-04T09:15:26.539Z,77.90
2018-09-04T09:16:26.514Z,78.40
2018-09-04T09:17:26.527Z,84.00
2018-09-04T09:18:26.527Z,79.50
2018-09-04T09:19:26.483Z,84.60
2018-09-04T09:20:26.469Z,82.10
2018-09-04T09:21:26.457Z,84.30
2018-09-04T09:22:26.449Z,82.50
2018-09-04T09:23:26.454Z,81.00
2018-09-04T09:24:26.473Z,78.00
2018-09-04T09:25:26.418Z,79.10
2018-09-04T09:26:26.403Z,83.60
2018-09-04T09:27:26.393Z,84.00
2018-09-04T09:28:26.388Z,82.90
2018-09-04T09:29:26.389Z,80.40
2018-09-04T09:30:26.398Z,77.80
2018-09-04T09:31:26.349Z,77.90
2018-09-04T09:32:26.347Z,82.10
2018-09-04T09:33:26.328Z,83.60
2018-09-04T09:34:26.339Z,81.40
2018-09-04T09:35:26.318Z,84.20
2018-09-04T09:36:26.328Z,85.90
2018-09-04T09:37:26.289Z,86.70
2018-09-04T09:38:26.295Z,85.50
2018-09-04T09:39:26.294Z,89.50
2018-09-04T09:40:26.252Z,85.10
2018-09-04T09:41:26.248Z,88.40
2018-09-04T09:42:26.232Z,86.50
2018-09-04T09:43:26.223Z,86.20
2018-09-04T09:44:26.269Z,84.90
2018-09-04T09:45:26.200Z,80.50
2018-09-04T09:46:26.196Z,84.40
2018-09-04T09:47:26.176Z,87.40
2018-09-04T09:48:26.162Z,84.30
2018-09-04T09:49:26.158Z,82.40
2018-09-04T09:50:26.183Z,83.80
2018-09-04T09:51:26.176Z,83.00
2018-09-04T09:52:26.146Z,84.10
2018-09-04T09:53:26.352Z,88.30
2018-09-04T09:54:26.103Z,86.80
2018-09-04T09:55:26.140Z,91.80
2018-09-04T09:56:26.146Z,85.60
2018-09-04T09:57:26.094Z,87.30
2018-09-04T09:58:26.066Z,87.80
2018-09-04T09:59:26.114Z,84.00
2018-09-04T10:00:26.038Z,89.70
2018-09-04T10:01:26.058Z,84.90
2018-09-04T10:02:26.054Z,81.90
2018-09-04T10:03:26.006Z,86.80
2018-09-04T10:04:25.998Z,81.90
2018-09-04T10:05:25.990Z,78.90
2018-09-04T10:06:25.976Z,78.70
2018-09-04T10:07:25.983Z,82.40
2018-09-04T10:08:25.990Z,81.00
2018-09-04T10:09:25.939Z,76.90
2018-09-04T10:10:25.935Z,77.90
2018-09-04T10:11:25.917Z,76.40
2018-09-04T10:12:25.928Z,77.10
2018-09-04T10:13:25.898Z,76.00
2018-09-04T10:14:25.904Z,78.80
2018-09-04T10:15:25.877Z,72.50
2018-09-04T10:16:25.862Z,72.60
2018-09-04T10:17:25.888Z,74.30
2018-09-04T10:18:25.844Z,74.80
2018-09-04T10:19:25.832Z,73.70
2018-09-04T10:20:25.850Z,79.00
2018-09-04T10:21:25.928Z,78.50
2018-09-04T10:22:25.799Z,79.10
2018-09-04T10:23:25.814Z,72.90
2018-09-04T10:24:25.780Z,74.60
2018-09-04T10:25:25.771Z,73.90
2018-09-04T10:26:25.859Z,74.00
2018-09-04T10:27:25.746Z,71.40
2018-09-04T10:28:25.753Z,72.60
2018-09-04T10:29:25.727Z,70.90
2018-09-04T10:30:25.718Z,71.60
2018-09-04T10:31:25.706Z,73.10
2018-09-04T10:32:25.737Z,72.10
2018-09-04T10:33:25.699Z,67.70
2018-09-04T10:34:25.674Z,63.50
2018-09-04T10:35:25.661Z,67.70
2018-09-04T10:36:25.719Z,65.40
2018-09-04T10:37:25.669Z,67.70
2018-09-04T10:38:25.677Z,66.60
2018-09-04T10:39:25.623Z,68.20
2018-09-04T10:40:25.616Z,70.50
2018-09-04T10:41:25.603Z,68.50
2018-09-04T10:42:25.588Z,65.50
2018-09-04T10:43:25.608Z,63.90
2018-09-04T10:44:25.697Z,62.80
2018-09-04T10:45:25.558Z,69.80
2018-09-04T10:46:25.569Z,67.30
2018-09-04T10:47:25.539Z,66.30
2018-09-04T10:48:25.522Z,63.30
2018-09-04T10:49:25.550Z,63.10
2018-09-04T10:50:25.621Z,66.10
2018-09-04T10:51:25.504Z,62.30
2018-09-04T10:52:25.524Z,63.20
2018-09-04T10:53:25.504Z,63.70
2018-09-04T10:54:25.478Z,63.50
2018-09-04T10:55:25.449Z,59.10
2018-09-04T10:56:25.454Z,59.60
2018-09-04T10:57:25.484Z,59.10
2018-09-04T10:58:25.431Z,59.30
2018-09-04T10:59:25.415Z,59.80
2018-09-04T11:00:25.466Z,55.90
2018-09-04T11:01:25.498Z,57.20
2018-09-04T11:02:25.381Z,58.60
2018-09-04T11:03:25.363Z,54.20
2018-09-04T11:04:25.404Z,53.90
2018-09-04T11:05:25.356Z,54.80
2018-09-04T11:06:25.338Z,49.00
2018-09-04T11:07:25.324Z,48.50
2018-09-04T11:08:25.354Z,49.80
2018-09-04T11:10:42.541Z,53.00
2018-09-04T11:11:42.249Z,54.40
2018-09-04T11:13:03.636Z,50.00
2018-09-04T11:13:42.194Z,48.20
2018-09-04T11:14:42.842Z,49.00
2018-09-04T11:15:41.940Z,49.80
2018-09-04T11:16:42.021Z,48.40
2018-09-04T11:17:41.933Z,48.20
2018-09-04T11:18:41.961Z,51.00
2018-09-04T11:19:41.974Z,46.20
2018-09-04T11:20:42.061Z,48.80
2018-09-04T11:21:41.990Z,47.00
2018-09-04T11:22:41.907Z,46.20
2018-09-04T11:23:41.872Z,43.90
2018-09-04T11:24:41.966Z,45.20
2018-09-04T11:25:41.823Z,47.20
2018-09-04T11:26:41.813Z,49.00
2018-09-04T11:27:41.813Z,46.30
2018-09-04T11:28:41.810Z,51.70
2018-09-04T11:29:41.800Z,43.60
2018-09-04T11:30:41.907Z,47.10
2018-09-04T11:31:41.867Z,48.70
2018-09-04T11:32:41.772Z,46.10
2018-09-04T11:33:41.745Z,44.80
2018-09-04T11:34:41.929Z,46.50
2018-09-04T11:35:41.778Z,46.70
2018-09-04T11:36:41.755Z,44.50
2018-09-04T11:37:41.779Z,46.20
2018-09-04T11:38:41.713Z,45.90
2018-09-04T11:39:41.683Z,43.40
2018-09-04T11:40:41.723Z,42.10
2018-09-04T11:41:41.670Z,44.20
2018-09-04T11:42:41.655Z,41.20
2018-09-04T11:43:41.655Z,39.50
2018-09-04T11:44:41.632Z,38.80
2018-09-04T11:45:42.182Z,40.50
2018-09-04T11:46:41.610Z,38.20
2018-09-04T11:47:41.662Z,42.60
2018-09-04T11:48:44.731Z,37.30
2018-09-04T11:49:41.663Z,40.60
2018-09-04T11:50:41.579Z,37.20
2018-09-04T11:51:41.568Z,40.00
2018-09-04T11:53:38.359Z,30.10
2018-09-04T11:54:37.958Z,33.10
2018-09-04T11:55:37.811Z,33.00
2018-09-04T11:56:37.740Z,31.70
2018-09-04T11:57:37.741Z,30.10
2018-09-04T11:58:37.850Z,34.60
2018-09-04T11:59:37.783Z,34.80
2018-09-04T12:00:37.782Z,31.40
2018-09-04T12:01:37.653Z,32.70
2018-09-04T12:02:37.639Z,30.50
2018-09-04T12:03:37.646Z,34.20
2018-09-04T12:04:37.637Z,29.10
2018-09-04T12:05:37.617Z,33.60
2018-09-04T12:06:37.690Z,29.30
2018-09-04T12:07:37.575Z,31.10
2018-09-04T12:08:37.565Z,30.10
2018-09-04T12:09:37.553Z,29.60
2018-09-04T12:10:37.567Z,29.40
2018-09-04T12:11:37.536Z,30.40
2018-09-04T12:12:38.538Z,32.90
2018-09-04T12:14:49.949Z,28.20
2018-09-04T12:15:49.417Z,30.70
2018-09-04T12:16:49.458Z,32.10
2018-09-04T12:17:49.468Z,28.50
2018-09-04T12:18:49.354Z,30.00
2018-09-04T12:19:50.009Z,29.50
2018-09-04T12:20:49.438Z,30.80
2018-09-04T12:21:49.319Z,31.30
2018-09-04T12:22:49.333Z,30.00
2018-09-04T12:23:50.444Z,28.80
2018-09-04T12:24:49.565Z,28.90
2018-09-04T12:25:49.453Z,27.30
2018-09-04T12:26:49.530Z,28.40
2018-09-04T12:27:49.272Z,26.80
2018-09-04T12:28:49.297Z,26.10
2018-09-04T12:29:49.518Z,25.50
2018-09-04T12:30:49.307Z,24.80
2018-09-04T12:31:49.324Z,25.40
2018-09-04T12:32:49.302Z,26.70
2018-09-04T12:33:49.262Z,22.30
2018-09-04T12:34:49.236Z,24.10
2018-09-04T12:35:49.200Z,24.90
2018-09-04T12:36:49.362Z,22.90
2018-09-04T12:37:49.178Z,28.20
2018-09-04T12:38:49.697Z,22.40
2018-09-04T12:39:50.042Z,25.20
2018-09-04T12:40:49.162Z,26.00
2018-09-04T12:41:49.218Z,22.20
2018-09-04T12:42:49.128Z,26.30
2018-09-04T12:43:49.132Z,26.00
2018-09-04T12:44:49.120Z,24.30
2018-09-04T12:45:49.105Z,24.60
2018-09-04T12:46:49.125Z,25.00
2018-09-04T12:47:49.141Z,22.90
2018-09-04T12:48:49.076Z,24.60
2018-09-04T12:49:49.426Z,22.30
2018-09-04T12:53:40.142Z,24.00
2018-09-04T12:54:39.729Z,26.00
2018-09-04T12:55:39.703Z,26.10
2018-09-04T12:56:39.551Z,27.40
2018-09-04T12:57:49.230Z,25.20
2018-09-04T12:58:39.674Z,23.50
2018-09-04T12:59:39.657Z,25.50
2018-09-04T13:00:39.901Z,25.20
2018-09-04T13:01:39.542Z,22.90
2018-09-04T13:02:39.469Z,21.60
2018-09-04T13:03:39.573Z,23.90
2018-09-04T13:04:39.518Z,23.30
2018-09-04T13:05:39.474Z,23.70
2018-09-04T13:06:39.434Z,27.30
2018-09-04T13:07:39.567Z,23.90